Time;durP1;ratioP1;P1;durP2;ratioP2;P2;SDS_P1;SDS_P2;PMS_P1;PMS_P2;Temp;Humidity;BMP_temperature;BMP_pressure;BME280_temperature;BME280_humidity;BME280_pressure;Samples;Min_cycle;Max_cycle;Signal;HPM_P1;HPM_P2
2022/03/22 00:02:23;;;;;;;48.10;32.25;;;;;;;;;;5043036;28;20072;-67
2022/03/22 00:04:49;;;;;;;51.17;32.20;;;;;;;;;;5043556;28;20182;-67
2022/03/22 00:07:15;;;;;;;44.45;30.60;;;;;;;;;;5042933;28;20104;-67
2022/03/22 00:09:41;;;;;;;46.65;31.77;;;;;;;;;;5018993;28;20028;-67
2022/03/22 00:12:07;;;;;;;48.15;32.85;;;;;;;;;;5042716;28;20071;-68
2022/03/22 00:14:33;;;;;;;45.60;32.38;;;;;;;;;;5042141;28;20055;-67
2022/03/22 00:16:58;;;;;;;48.72;33.67;;;;;;;;;;5042473;28;20624;-68
2022/03/22 00:19:23;;;;;;;48.55;32.67;;;;;;;;;;5042363;28;20033;-67
2022/03/22 00:21:50;;;;;;;48.78;33.03;;;;;;;;;;5041457;28;20132;-68
2022/03/22 00:24:15;;;;;;;46.15;33.65;;;;;;;;;;5037469;28;20025;-68
2022/03/22 00:26:41;;;;;;;46.17;32.42;;;;;;;;;;5043966;28;20112;-67
2022/03/22 00:29:08;;;;;;;47.88;32.97;;;;;;;;;;5024815;28;20029;-67
2022/03/22 00:31:34;;;;;;;48.97;32.55;;;;;;;;;;5024575;28;20079;-67
2022/03/22 00:33:59;;;;;;;53.42;33.30;;;;;;;;;;5042054;28;20025;-67
2022/03/22 00:36:24;;;;;;;50.42;32.30;;;;;;;;;;5044909;28;20040;-67
2022/03/22 00:38:50;;;;;;;49.85;32.60;;;;;;;;;;5038310;28;20384;-67
2022/03/22 00:41:17;;;;;;;48.85;31.83;;;;;;;;;;5026675;28;20471;-67
2022/03/22 00:43:46;;;;;;;45.22;30.70;;;;;;;;;;5041599;28;20060;-67
2022/03/22 00:46:12;;;;;;;45.45;31.65;;;;;;;;;;5041956;28;20464;-67
2022/03/22 00:48:37;;;;;;;48.10;32.10;;;;;;;;;;5042641;28;20078;-67
2022/03/22 00:51:04;;;;;;;48.72;31.95;;;;;;;;;;5042387;28;20446;-67
2022/03/22 00:53:29;;;;;;;51.67;33.63;;;;;;;;;;5038082;28;20040;-67
2022/03/22 00:55:54;;;;;;;52.65;33.58;;;;;;;;;;5042502;28;20220;-67
2022/03/22 00:58:20;;;;;;;47.22;32.85;;;;;;;;;;5042741;28;20032;-66
2022/03/22 01:00:48;;;;;;;45.08;32.20;;;;;;;;;;5022835;28;20086;-66
2022/03/22 01:03:13;;;;;;;45.92;31.77;;;;;;;;;;5041041;28;20037;-67
2022/03/22 01:05:38;;;;;;;43.60;31.42;;;;;;;;;;5043251;28;20033;-67
2022/03/22 01:08:05;;;;;;;47.53;32.55;;;;;;;;;;5020568;28;20205;-67
2022/03/22 01:10:31;;;;;;;50.20;33.10;;;;;;;;;;5040367;28;20029;-68
2022/03/22 01:12:57;;;;;;;47.75;32.90;;;;;;;;;;5041940;28;20341;-66
2022/03/22 01:15:24;;;;;;;47.50;31.50;;;;;;;;;;5050899;28;20039;-68
2022/03/22 01:17:51;;;;;;;49.72;32.97;;;;;;;;;;5059373;28;20048;-67
2022/03/22 01:20:19;;;;;;;49.28;33.90;;;;;;;;;;5061727;28;20021;-66
2022/03/22 01:22:45;;;;;;;46.15;32.80;;;;;;;;;;5042868;28;20029;-67
2022/03/22 01:25:13;;;;;;;51.55;34.25;;;;;;;;;;5038040;28;20261;-67
2022/03/22 01:27:39;;;;;;;47.33;32.53;;;;;;;;;;5044985;28;20195;-67
2022/03/22 01:30:05;;;;;;;47.60;32.17;;;;;;;;;;5038971;28;20627;-67
2022/03/22 01:32:30;;;;;;;49.75;33.90;;;;;;;;;;5042936;28;20025;-67
2022/03/22 01:34:56;;;;;;;43.80;29.92;;;;;;;;;;5041058;28;20108;-67
2022/03/22 01:37:22;;;;;;;50.45;32.97;;;;;;;;;;5041107;28;20104;-67
2022/03/22 01:39:48;;;;;;;45.67;31.13;;;;;;;;;;5037474;28;20056;-66
2022/03/22 01:42:15;;;;;;;45.72;32.33;;;;;;;;;;5025254;28;20029;-68
2022/03/22 01:44:40;;;;;;;48.63;33.67;;;;;;;;;;5038474;28;20102;-67
2022/03/22 01:47:05;;;;;;;48.20;31.88;;;;;;;;;;5041875;28;20059;-68
2022/03/22 01:49:31;;;;;;;48.70;33.65;;;;;;;;;;5039860;28;20444;-67
2022/03/22 01:51:56;;;;;;;47.78;33.65;;;;;;;;;;5040452;28;20025;-66
2022/03/22 01:54:22;;;;;;;49.30;33.28;;;;;;;;;;5036456;28;20025;-67
2022/03/22 01:56:49;;;;;;;49.08;33.83;;;;;;;;;;5042348;28;20391;-67
2022/03/22 01:59:15;;;;;;;50.20;33.30;;;;;;;;;;5038036;28;20012;-66
2022/03/22 02:07:11;;;;;;;44.22;31.83;;;;;;;;;;5040791;28;20613;-66
2022/03/22 02:09:36;;;;;;;49.17;34.55;;;;;;;;;;5049802;28;20029;-67
2022/03/22 02:12:01;;;;;;;49.00;32.35;;;;;;;;;;5060002;28;20009;-66
2022/03/22 02:14:27;;;;;;;48.42;34.33;;;;;;;;;;5059042;28;20025;-67
2022/03/22 02:16:53;;;;;;;49.13;33.17;;;;;;;;;;5062226;28;20082;-67
2022/03/22 02:19:18;;;;;;;48.47;34.08;;;;;;;;;;5043903;28;20442;-68
2022/03/22 02:21:44;;;;;;;50.15;33.90;;;;;;;;;;5063120;28;20056;-68
2022/03/22 02:24:09;;;;;;;51.40;33.78;;;;;;;;;;5055778;28;20024;-66
2022/03/22 02:26:36;;;;;;;48.25;33.53;;;;;;;;;;5064090;28;20059;-67
2022/03/22 02:29:03;;;;;;;48.80;33.67;;;;;;;;;;5060182;28;20040;-67
2022/03/22 02:31:29;;;;;;;52.58;33.80;;;;;;;;;;5058634;28;20032;-67
2022/03/22 02:33:55;;;;;;;51.65;33.90;;;;;;;;;;5060419;28;20028;-67
2022/03/22 02:36:21;;;;;;;52.85;35.13;;;;;;;;;;5044736;28;20021;-66
2022/03/22 02:38:46;;;;;;;51.00;34.00;;;;;;;;;;5057117;28;20039;-67
2022/03/22 02:41:16;;;;;;;51.33;34.40;;;;;;;;;;5061821;28;20032;-67
2022/03/22 02:43:41;;;;;;;48.50;32.63;;;;;;;;;;5060293;28;20034;-68
2022/03/22 02:46:07;;;;;;;54.20;36.17;;;;;;;;;;5058389;28;20446;-67
2022/03/22 02:48:34;;;;;;;51.25;34.38;;;;;;;;;;5061925;28;20021;-67
2022/03/22 02:50:59;;;;;;;53.95;35.80;;;;;;;;;;5059038;28;20063;-67
2022/03/22 02:53:25;;;;;;;52.05;35.20;;;;;;;;;;5057105;28;20123;-69
2022/03/22 02:55:50;;;;;;;51.65;34.42;;;;;;;;;;5061075;28;20052;-67
2022/03/22 02:58:15;;;;;;;52.25;35.55;;;;;;;;;;5058681;28;20201;-68
2022/03/22 03:00:41;;;;;;;54.72;35.55;;;;;;;;;;5059444;28;20052;-67
2022/03/22 03:03:06;;;;;;;55.60;35.65;;;;;;;;;;5056601;28;20037;-67
2022/03/22 03:05:32;;;;;;;54.15;34.85;;;;;;;;;;5061056;28;20028;-67
2022/03/22 03:07:59;;;;;;;48.20;34.70;;;;;;;;;;5058873;28;20103;-67
2022/03/22 03:10:25;;;;;;;53.47;35.80;;;;;;;;;;5025925;28;20021;-67
2022/03/22 03:12:58;;;;;;;51.10;33.53;;;;;;;;;;5045176;28;20029;-67
2022/03/22 03:15:23;;;;;;;51.35;35.38;;;;;;;;;;5040755;28;20078;-67
2022/03/22 03:17:48;;;;;;;53.10;36.05;;;;;;;;;;5045368;28;20029;-66
2022/03/22 03:20:14;;;;;;;51.33;35.08;;;;;;;;;;5043129;28;20128;-67
2022/03/22 03:22:39;;;;;;;50.97;33.40;;;;;;;;;;5042913;28;20110;-67
2022/03/22 03:25:06;;;;;;;53.00;35.63;;;;;;;;;;5057555;28;20066;-67
2022/03/22 03:27:32;;;;;;;53.72;38.70;;;;;;;;;;5063691;28;20025;-68
2022/03/22 03:29:58;;;;;;;57.70;39.38;;;;;;;;;;5061071;28;20082;-67
2022/03/22 03:32:23;;;;;;;62.22;39.90;;;;;;;;;;5044960;28;20028;-68
2022/03/22 03:34:49;;;;;;;53.00;38.70;;;;;;;;;;5062690;28;20021;-67
2022/03/22 03:37:15;;;;;;;56.33;39.13;;;;;;;;;;5062589;28;20031;-67
2022/03/22 03:39:41;;;;;;;55.15;38.22;;;;;;;;;;5030160;28;20041;-67
2022/03/22 03:42:06;;;;;;;56.97;40.25;;;;;;;;;;5043001;28;20093;-68
2022/03/22 03:47:18;;;;;;;57.30;38.72;;;;;;;;;;5043594;28;20075;-67
2022/03/22 03:49:47;;;;;;;57.35;38.75;;;;;;;;;;5043642;28;20036;-67
2022/03/22 03:52:15;;;;;;;65.07;41.38;;;;;;;;;;5041327;28;20024;-67
2022/03/22 03:54:41;;;;;;;51.78;35.90;;;;;;;;;;5040126;28;20664;-66
2022/03/22 03:57:06;;;;;;;59.42;41.10;;;;;;;;;;5043072;28;20027;-67
2022/03/22 03:59:32;;;;;;;59.05;38.75;;;;;;;;;;5023488;28;20441;-67
2022/03/22 04:01:58;;;;;;;57.00;37.33;;;;;;;;;;5042936;28;20164;-66
2022/03/22 04:04:24;;;;;;;61.45;40.00;;;;;;;;;;5024340;28;20479;-69
2022/03/22 04:06:49;;;;;;;58.03;39.20;;;;;;;;;;5045388;28;20029;-68
2022/03/22 04:09:15;;;;;;;56.80;41.53;;;;;;;;;;5038596;28;20348;-67
2022/03/22 04:11:41;;;;;;;63.97;41.45;;;;;;;;;;5043466;28;20483;-68
2022/03/22 04:14:07;;;;;;;58.92;39.97;;;;;;;;;;5025296;28;20036;-67
2022/03/22 04:16:34;;;;;;;63.17;41.95;;;;;;;;;;5042538;28;20024;-68
2022/03/22 04:19:00;;;;;;;67.30;42.80;;;;;;;;;;5041948;28;20482;-68
2022/03/22 04:21:25;;;;;;;60.78;41.53;;;;;;;;;;5042053;28;20451;-67
2022/03/22 04:23:51;;;;;;;60.42;42.67;;;;;;;;;;5037049;28;20020;-68
2022/03/22 04:26:17;;;;;;;59.40;40.92;;;;;;;;;;5041913;28;20028;-67
2022/03/22 04:34:10;;;;;;;63.35;44.17;;;;;;;;;;5041906;28;20070;-67
2022/03/22 04:36:35;;;;;;;69.75;45.30;;;;;;;;;;5045228;28;20025;-68
2022/03/22 04:39:03;;;;;;;64.07;43.45;;;;;;;;;;5040066;28;20459;-68
2022/03/22 04:41:28;;;;;;;64.55;41.67;;;;;;;;;;5042178;28;20108;-68
2022/03/22 04:43:54;;;;;;;61.95;43.28;;;;;;;;;;5043718;28;20119;-68
2022/03/22 04:46:19;;;;;;;63.00;43.08;;;;;;;;;;5039968;28;20061;-67
2022/03/22 04:48:45;;;;;;;57.53;41.88;;;;;;;;;;5042881;28;20145;-68
2022/03/22 04:56:46;;;;;;;61.97;43.08;;;;;;;;;;5043589;28;20104;-68
2022/03/22 04:59:24;;;;;;;62.78;42.88;;;;;;;;;;5040586;28;20169;-68
2022/03/22 05:01:50;;;;;;;66.38;45.15;;;;;;;;;;5044559;28;20032;-68
2022/03/22 05:04:15;;;;;;;61.13;42.33;;;;;;;;;;5039330;28;20095;-67
2022/03/22 05:06:41;;;;;;;67.40;46.03;;;;;;;;;;5041723;28;20033;-68
2022/03/22 05:09:07;;;;;;;63.42;42.92;;;;;;;;;;5037554;28;20040;-66
2022/03/22 05:11:33;;;;;;;60.97;43.45;;;;;;;;;;5040356;28;20028;-68
2022/03/22 05:13:58;;;;;;;70.50;44.78;;;;;;;;;;5040338;28;20042;-67
2022/03/22 05:16:24;;;;;;;70.43;46.88;;;;;;;;;;5038736;28;20028;-68
2022/03/22 05:18:50;;;;;;;69.03;44.70;;;;;;;;;;5044820;28;20066;-67
2022/03/22 05:21:17;;;;;;;67.22;43.50;;;;;;;;;;5060209;28;20017;-67
2022/03/22 05:23:42;;;;;;;66.05;44.25;;;;;;;;;;5035607;28;20025;-67
2022/03/22 05:26:08;;;;;;;59.88;42.70;;;;;;;;;;5041639;28;20028;-67
2022/03/22 05:28:33;;;;;;;59.35;41.85;;;;;;;;;;5022952;28;20286;-67
2022/03/22 05:30:58;;;;;;;60.60;43.58;;;;;;;;;;5039947;28;20534;-68
2022/03/22 05:33:24;;;;;;;62.47;44.15;;;;;;;;;;5039952;28;20132;-67
2022/03/22 05:35:49;;;;;;;63.58;42.80;;;;;;;;;;5042442;28;20021;-67
2022/03/22 05:38:15;;;;;;;66.68;46.63;;;;;;;;;;5036952;28;20021;-67
2022/03/22 05:40:40;;;;;;;67.22;45.38;;;;;;;;;;5042470;28;20059;-69
2022/03/22 05:43:06;;;;;;;59.63;41.80;;;;;;;;;;5060097;28;20020;-67
2022/03/22 05:45:32;;;;;;;65.55;45.47;;;;;;;;;;5058923;28;20372;-67
2022/03/22 05:48:00;;;;;;;64.63;44.95;;;;;;;;;;5060337;28;20047;-68
2022/03/22 05:50:26;;;;;;;63.80;44.47;;;;;;;;;;5060751;28;20017;-67
2022/03/22 05:52:51;;;;;;;63.15;42.97;;;;;;;;;;5060040;28;20090;-67
2022/03/22 05:55:16;;;;;;;68.05;46.17;;;;;;;;;;5058110;28;20059;-68
2022/03/22 05:57:42;;;;;;;65.15;43.67;;;;;;;;;;5053994;28;20424;-67
2022/03/22 06:00:18;;;;;;;62.90;43.85;;;;;;;;;;5041281;28;20032;-67
2022/03/22 06:02:43;;;;;;;63.17;45.55;;;;;;;;;;5043215;28;20025;-68
2022/03/22 06:05:11;;;;;;;61.30;43.45;;;;;;;;;;5041144;28;20060;-70
2022/03/22 06:07:36;;;;;;;60.60;43.67;;;;;;;;;;5039579;28;20028;-67
2022/03/22 06:10:02;;;;;;;61.90;42.25;;;;;;;;;;5040142;28;20028;-68
2022/03/22 06:12:33;;;;;;;63.60;45.60;;;;;;;;;;5041300;28;20029;-68
2022/03/22 06:15:14;;;;;;;51.65;36.00;;;;;;;;;;5043071;28;20024;-68
2022/03/22 06:17:40;;;;;;;66.57;42.88;;;;;;;;;;5026569;28;20036;-68
2022/03/22 06:20:06;;;;;;;62.80;43.03;;;;;;;;;;5042152;28;20025;-69
2022/03/22 06:22:31;;;;;;;63.03;43.85;;;;;;;;;;5040025;28;20577;-68
2022/03/22 06:24:56;;;;;;;61.55;43.38;;;;;;;;;;5039486;28;20130;-69
2022/03/22 06:27:22;;;;;;;63.47;42.35;;;;;;;;;;5045427;28;20218;-68
2022/03/22 06:29:47;;;;;;;63.92;43.63;;;;;;;;;;5041535;28;20025;-69
2022/03/22 06:32:13;;;;;;;62.10;43.10;;;;;;;;;;5040724;28;21129;-68
2022/03/22 06:34:38;;;;;;;66.72;45.67;;;;;;;;;;5024087;28;20112;-69
2022/03/22 06:37:04;;;;;;;67.70;47.33;;;;;;;;;;5044259;28;20107;-69
2022/03/22 06:39:29;;;;;;;64.05;44.63;;;;;;;;;;5036341;28;20033;-69
2022/03/22 06:41:54;;;;;;;67.57;46.75;;;;;;;;;;5043527;28;20098;-69
2022/03/22 06:44:20;;;;;;;62.83;44.70;;;;;;;;;;5042989;28;20195;-69
2022/03/22 06:46:45;;;;;;;55.92;43.28;;;;;;;;;;5029575;28;20029;-68
2022/03/22 06:49:12;;;;;;;64.55;44.08;;;;;;;;;;5046851;28;20025;-69
2022/03/22 06:51:38;;;;;;;74.18;45.55;;;;;;;;;;5028575;28;20575;-68
2022/03/22 06:54:03;;;;;;;62.38;44.40;;;;;;;;;;5042203;28;20103;-69
2022/03/22 06:56:28;;;;;;;63.30;44.42;;;;;;;;;;5043802;28;20029;-67
2022/03/22 06:58:53;;;;;;;63.20;44.30;;;;;;;;;;5043668;28;20451;-68
2022/03/22 07:01:19;;;;;;;64.93;44.22;;;;;;;;;;5044054;28;20395;-67
2022/03/22 07:03:44;;;;;;;63.05;44.08;;;;;;;;;;5045429;28;20048;-68
2022/03/22 07:06:09;;;;;;;59.20;43.58;;;;;;;;;;5046672;28;20358;-69
2022/03/22 07:08:35;;;;;;;62.38;43.63;;;;;;;;;;5039671;28;20435;-69
2022/03/22 07:13:43;;;;;;;65.57;45.78;;;;;;;;;;5045296;28;20109;-68
2022/03/22 07:16:09;;;;;;;66.47;45.95;;;;;;;;;;5044650;28;20100;-69
2022/03/22 07:18:34;;;;;;;67.95;46.17;;;;;;;;;;5044144;28;20537;-68
2022/03/22 07:21:04;;;;;;;66.50;45.50;;;;;;;;;;5045856;28;20025;-69
2022/03/22 07:23:29;;;;;;;56.53;42.13;;;;;;;;;;5040631;28;20499;-68
2022/03/22 07:25:54;;;;;;;62.03;44.40;;;;;;;;;;5061909;28;20078;-68
2022/03/22 07:28:21;;;;;;;60.78;45.47;;;;;;;;;;5062424;28;20081;-68
2022/03/22 07:30:46;;;;;;;60.25;44.05;;;;;;;;;;5044907;28;20383;-67
2022/03/22 07:33:11;;;;;;;59.42;43.30;;;;;;;;;;5062046;28;20031;-68
2022/03/22 07:35:37;;;;;;;60.08;43.88;;;;;;;;;;5063735;28;20063;-68
2022/03/22 07:38:03;;;;;;;52.60;41.13;;;;;;;;;;5064867;28;20481;-68
2022/03/22 07:40:29;;;;;;;57.28;42.80;;;;;;;;;;5045744;28;20037;-68
2022/03/22 07:42:54;;;;;;;61.28;42.40;;;;;;;;;;5064206;28;20027;-68
2022/03/22 07:45:20;;;;;;;61.10;44.92;;;;;;;;;;5063563;28;20025;-68
2022/03/22 07:47:45;;;;;;;56.42;41.97;;;;;;;;;;5064027;28;20016;-68
2022/03/22 07:53:01;;;;;;;60.08;41.10;;;;;;;;;;5068815;28;20040;-69
2022/03/22 07:55:28;;;;;;;54.70;42.47;;;;;;;;;;5070677;28;20088;-70
2022/03/22 07:57:54;;;;;;;57.38;43.17;;;;;;;;;;5065604;28;20029;-70
2022/03/22 08:00:20;;;;;;;57.05;42.08;;;;;;;;;;5063023;28;20036;-68
2022/03/22 08:02:57;;;;;;;57.42;42.53;;;;;;;;;;5063069;28;20032;-68
2022/03/22 08:05:23;;;;;;;59.97;41.58;;;;;;;;;;5045418;28;20460;-68
2022/03/22 08:07:48;;;;;;;54.80;40.97;;;;;;;;;;5047124;28;20085;-68
2022/03/22 08:10:14;;;;;;;54.05;40.70;;;;;;;;;;5060658;28;20433;-69
2022/03/22 08:12:40;;;;;;;56.13;39.95;;;;;;;;;;5062818;28;20464;-69
2022/03/22 08:15:06;;;;;;;57.95;42.55;;;;;;;;;;5063187;28;20504;-67
2022/03/22 08:17:31;;;;;;;54.22;42.50;;;;;;;;;;5062062;28;20119;-67
2022/03/22 08:19:57;;;;;;;56.00;41.13;;;;;;;;;;5069012;28;20482;-68
2022/03/22 08:22:23;;;;;;;52.83;40.50;;;;;;;;;;5061713;28;20119;-68
2022/03/22 08:24:49;;;;;;;50.30;38.75;;;;;;;;;;5042829;28;20214;-69
2022/03/22 08:27:15;;;;;;;54.70;38.05;;;;;;;;;;5047343;28;20062;-69
2022/03/22 08:29:40;;;;;;;56.53;37.70;;;;;;;;;;5023956;28;20749;-67
2022/03/22 08:32:06;;;;;;;61.10;39.00;;;;;;;;;;5044316;28;20352;-69
2022/03/22 08:34:31;;;;;;;47.55;37.10;;;;;;;;;;5042536;28;20033;-69
2022/03/22 08:36:57;;;;;;;45.92;36.85;;;;;;;;;;5045154;28;20079;-69
2022/03/22 08:39:22;;;;;;;44.50;36.97;;;;;;;;;;5041357;28;20096;-67
2022/03/22 08:41:48;;;;;;;46.28;37.03;;;;;;;;;;5042648;28;20025;-68
2022/03/22 08:44:14;;;;;;;49.13;37.95;;;;;;;;;;5043482;28;20024;-68
2022/03/22 08:46:40;;;;;;;45.65;36.55;;;;;;;;;;5040241;28;20124;-68
2022/03/22 08:49:05;;;;;;;47.75;36.88;;;;;;;;;;5042883;28;20017;-67
2022/03/22 08:51:30;;;;;;;45.10;37.42;;;;;;;;;;5039890;28;20463;-68
2022/03/22 08:53:56;;;;;;;46.08;35.28;;;;;;;;;;5043213;28;20124;-67
2022/03/22 08:56:25;;;;;;;45.97;37.08;;;;;;;;;;5063811;28;20024;-68
2022/03/22 08:58:52;;;;;;;46.45;35.80;;;;;;;;;;5043963;28;20978;-68
2022/03/22 09:01:17;;;;;;;47.13;37.47;;;;;;;;;;5039042;28;20013;-68
2022/03/22 09:03:43;;;;;;;48.88;37.00;;;;;;;;;;5039071;28;20216;-68
2022/03/22 09:06:08;;;;;;;46.33;36.17;;;;;;;;;;5041573;28;20021;-68
2022/03/22 09:08:37;;;;;;;45.60;35.83;;;;;;;;;;5038834;28;20020;-68
2022/03/22 09:11:03;;;;;;;44.75;34.53;;;;;;;;;;5041677;28;20020;-68
2022/03/22 09:13:29;;;;;;;44.97;35.75;;;;;;;;;;5040294;28;20017;-68
2022/03/22 09:15:54;;;;;;;44.03;36.47;;;;;;;;;;5041223;28;20017;-68
2022/03/22 09:18:22;;;;;;;43.85;34.60;;;;;;;;;;5042320;28;20567;-68
2022/03/22 09:20:48;;;;;;;43.63;35.67;;;;;;;;;;5041593;28;20104;-69
2022/03/22 09:23:14;;;;;;;44.35;32.88;;;;;;;;;;5039683;28;20444;-68
2022/03/22 09:25:40;;;;;;;44.72;35.03;;;;;;;;;;5043371;28;20020;-70
2022/03/22 09:28:06;;;;;;;38.90;33.90;;;;;;;;;;5043119;28;20768;-67
2022/03/22 09:30:32;;;;;;;41.65;32.42;;;;;;;;;;5019616;28;20067;-67
2022/03/22 09:32:57;;;;;;;38.50;31.50;;;;;;;;;;5042964;28;20074;-67
2022/03/22 09:35:23;;;;;;;42.78;32.90;;;;;;;;;;5021658;28;20029;-68
2022/03/22 09:37:50;;;;;;;37.90;30.65;;;;;;;;;;5041184;28;20025;-68
2022/03/22 09:40:17;;;;;;;40.72;32.42;;;;;;;;;;5041429;28;20021;-68
2022/03/22 09:42:43;;;;;;;37.33;30.60;;;;;;;;;;5041072;28;20025;-68
2022/03/22 09:45:15;;;;;;;38.05;31.70;;;;;;;;;;5041519;28;20079;-67
2022/03/22 09:47:42;;;;;;;41.33;32.83;;;;;;;;;;5040284;28;20113;-68
2022/03/22 09:50:08;;;;;;;36.03;31.58;;;;;;;;;;5043321;28;20027;-68
2022/03/22 09:52:34;;;;;;;36.42;30.33;;;;;;;;;;5041184;28;20021;-68
2022/03/22 09:54:59;;;;;;;32.80;29.20;;;;;;;;;;5041315;28;20110;-68
2022/03/22 09:57:25;;;;;;;34.42;30.33;;;;;;;;;;5043556;28;20029;-69
2022/03/22 09:59:53;;;;;;;34.35;30.50;;;;;;;;;;5039615;28;20112;-68
2022/03/22 10:02:26;;;;;;;34.30;29.10;;;;;;;;;;5042619;28;20028;-68
2022/03/22 10:04:51;;;;;;;36.35;29.60;;;;;;;;;;5040145;28;20053;-68
2022/03/22 10:07:18;;;;;;;34.08;29.65;;;;;;;;;;5041825;28;20028;-67
2022/03/22 10:09:50;;;;;;;33.03;29.38;;;;;;;;;;5035747;28;20024;-68
2022/03/22 10:12:24;;;;;;;35.07;27.27;;;;;;;;;;5043771;28;20407;-68
2022/03/22 10:14:49;;;;;;;35.60;29.63;;;;;;;;;;5038743;28;20250;-68
2022/03/22 10:17:16;;;;;;;35.80;27.63;;;;;;;;;;5043238;28;20106;-68
2022/03/22 10:19:42;;;;;;;31.65;27.30;;;;;;;;;;5040123;28;20056;-68
2022/03/22 10:22:10;;;;;;;30.05;26.75;;;;;;;;;;5041221;28;20017;-69
2022/03/22 10:24:45;;;;;;;32.00;26.90;;;;;;;;;;5035947;28;20200;-67
2022/03/22 10:27:31;;;;;;;32.05;26.55;;;;;;;;;;5041173;28;20051;-68
2022/03/22 10:29:57;;;;;;;30.17;25.77;;;;;;;;;;5021594;28;20111;-68
2022/03/22 10:32:36;;;;;;;34.33;27.85;;;;;;;;;;5041576;28;20100;-69
2022/03/22 10:35:14;;;;;;;34.38;27.65;;;;;;;;;;5042299;28;20032;-68
2022/03/22 10:37:47;;;;;;;32.03;26.40;;;;;;;;;;5037975;28;20195;-68
2022/03/22 10:40:12;;;;;;;;;;;;;;;;;;5040991;28;20324;-68
2022/03/22 10:42:38;;;;;;;31.30;26.52;;;;;;;;;;5040606;28;19922;-69
2022/03/22 10:45:03;;;;;;;30.90;25.33;;;;;;;;;;5039556;28;20098;-68
2022/03/22 10:47:29;;;;;;;32.67;25.33;;;;;;;;;;5044938;28;20032;-68
2022/03/22 10:50:01;;;;;;;28.88;25.50;;;;;;;;;;5059595;28;20414;-69
2022/03/22 10:52:29;;;;;;;29.25;25.13;;;;;;;;;;5059623;28;20499;-68
2022/03/22 10:54:55;;;;;;;30.08;26.10;;;;;;;;;;5041243;28;20189;-69
2022/03/22 10:57:29;;;;;;;30.77;25.20;;;;;;;;;;5062668;28;20025;-69
2022/03/22 10:59:55;;;;;;;29.42;26.23;;;;;;;;;;5040727;28;20442;-67
2022/03/22 11:02:22;;;;;;;31.83;25.75;;;;;;;;;;5063315;28;20054;-69
2022/03/22 11:04:50;;;;;;;27.20;24.25;;;;;;;;;;5059554;28;20136;-67
2022/03/22 11:07:26;;;;;;;28.05;24.05;;;;;;;;;;5062411;28;20101;-67
2022/03/22 11:09:51;;;;;;;27.42;23.77;;;;;;;;;;5057668;28;20036;-68
2022/03/22 11:12:18;;;;;;;27.00;22.73;;;;;;;;;;5062438;28;20097;-66
2022/03/22 11:14:44;;;;;;;24.55;21.90;;;;;;;;;;5056630;28;20012;-69
2022/03/22 11:17:10;;;;;;;27.20;22.98;;;;;;;;;;5062303;28;20034;-68
2022/03/22 11:19:36;;;;;;;24.95;22.35;;;;;;;;;;5061275;28;20516;-68
2022/03/22 11:22:05;;;;;;;25.98;22.98;;;;;;;;;;5061650;28;20103;-69
2022/03/22 11:24:30;;;;;;;25.77;22.90;;;;;;;;;;5055557;28;20039;-69
2022/03/22 11:26:58;;;;;;;27.58;22.60;;;;;;;;;;5061155;28;20507;-69
2022/03/22 11:29:27;;;;;;;24.50;21.90;;;;;;;;;;5061533;28;20021;-69
2022/03/22 11:34:38;;;;;;;23.38;20.88;;;;;;;;;;5064929;28;20036;-68
2022/03/22 11:37:04;;;;;;;25.25;21.98;;;;;;;;;;5065123;28;20039;-68
2022/03/22 11:42:18;;;;;;;24.42;21.83;;;;;;;;;;5067158;28;20074;-68
2022/03/22 11:44:53;;;;;;;23.38;20.27;;;;;;;;;;5062526;28;20027;-68
2022/03/22 11:47:19;;;;;;;23.98;21.08;;;;;;;;;;5066441;28;20039;-68
2022/03/22 11:49:57;;;;;;;24.10;20.58;;;;;;;;;;5068308;28;20544;-68
2022/03/22 11:52:40;;;;;;;24.42;19.02;;;;;;;;;;5064302;28;20024;-67
2022/03/22 11:55:10;;;;;;;23.63;20.25;;;;;;;;;;5061961;28;20012;-68
2022/03/22 11:57:42;;;;;;;23.33;20.17;;;;;;;;;;5065789;28;20470;-67
2022/03/22 12:00:08;;;;;;;21.88;19.13;;;;;;;;;;5063411;28;20605;-68
2022/03/22 12:02:37;;;;;;;22.65;18.05;;;;;;;;;;5063789;28;20119;-69
2022/03/22 12:05:02;;;;;;;25.85;19.33;;;;;;;;;;5062501;28;20601;-68
2022/03/22 12:07:30;;;;;;;21.33;18.10;;;;;;;;;;5062973;28;20135;-68
2022/03/22 12:10:11;;;;;;;21.10;17.30;;;;;;;;;;5059613;28;20012;-70
2022/03/22 12:12:37;;;;;;;21.88;17.25;;;;;;;;;;5064746;28;20023;-68
2022/03/22 12:15:04;;;;;;;22.00;16.50;;;;;;;;;;5042150;28;20036;-69
2022/03/22 12:17:30;;;;;;;18.88;16.15;;;;;;;;;;5064335;28;20017;-67
2022/03/22 12:19:59;;;;;;;18.80;16.75;;;;;;;;;;5061957;28;20044;-69
2022/03/22 12:22:25;;;;;;;20.50;16.73;;;;;;;;;;5059816;28;20103;-70
2022/03/22 12:24:50;;;;;;;20.80;17.80;;;;;;;;;;5058945;28;20107;-68
2022/03/22 12:27:16;;;;;;;20.15;16.35;;;;;;;;;;5064641;28;20395;-68
2022/03/22 12:29:42;;;;;;;19.52;15.77;;;;;;;;;;5060969;28;20024;-69
2022/03/22 12:32:13;;;;;;;14.20;12.70;;;;;;;;;;5062569;28;20089;-69
2022/03/22 12:34:39;;;;;;;13.82;11.65;;;;;;;;;;5063017;28;20024;-69
2022/03/22 12:37:08;;;;;;;15.98;13.00;;;;;;;;;;5060647;28;20156;-69
2022/03/22 12:39:33;;;;;;;17.40;14.20;;;;;;;;;;5057890;28;20515;-68
2022/03/22 12:41:59;;;;;;;13.85;11.02;;;;;;;;;;5062415;28;20490;-69
2022/03/22 12:44:25;;;;;;;14.05;12.00;;;;;;;;;;5059764;28;20191;-70
2022/03/22 12:46:51;;;;;;;16.70;12.63;;;;;;;;;;5062335;28;20056;-69
2022/03/22 12:49:17;;;;;;;14.95;12.15;;;;;;;;;;5064392;28;20047;-69
2022/03/22 12:51:44;;;;;;;13.48;12.07;;;;;;;;;;5063090;28;20016;-68
2022/03/22 12:54:11;;;;;;;15.05;12.57;;;;;;;;;;5030527;28;20055;-68
2022/03/22 12:56:43;;;;;;;16.05;14.23;;;;;;;;;;5044838;28;20039;-68
2022/03/22 12:59:09;;;;;;;;;;;;;;;;;;5041978;28;20340;-69
2022/03/22 13:01:38;;;;;;;19.80;15.05;;;;;;;;;;5042347;28;19908;-70
2022/03/22 13:04:03;;;;;;;19.23;15.63;;;;;;;;;;5039989;28;20532;-68
2022/03/22 13:06:29;;;;;;;17.27;14.75;;;;;;;;;;5044061;28;20480;-69
2022/03/22 13:11:38;;;;;;;17.27;14.00;;;;;;;;;;5061113;28;20433;-69
2022/03/22 13:16:54;;;;;;;15.98;13.75;;;;;;;;;;5063630;28;20247;-68
2022/03/22 13:19:20;;;;;;;16.92;12.55;;;;;;;;;;5063570;28;20020;-69
2022/03/22 13:21:46;;;;;;;14.52;12.52;;;;;;;;;;5062027;28;20020;-67
2022/03/22 13:24:23;;;;;;;14.85;12.90;;;;;;;;;;5056797;28;20043;-68
2022/03/22 13:26:55;;;;;;;14.40;12.27;;;;;;;;;;5063055;28;20123;-68
2022/03/22 13:29:21;;;;;;;15.55;12.30;;;;;;;;;;5061116;28;20035;-69
2022/03/22 13:31:53;;;;;;;15.65;11.55;;;;;;;;;;5062822;28;20032;-68
2022/03/22 13:34:22;;;;;;;13.80;10.85;;;;;;;;;;5063572;28;20012;-68
2022/03/22 13:36:48;;;;;;;15.85;11.60;;;;;;;;;;5061016;28;20123;-68
2022/03/22 13:39:21;;;;;;;17.27;12.05;;;;;;;;;;5057158;28;20063;-69
2022/03/22 13:41:47;;;;;;;14.77;11.77;;;;;;;;;;5063890;28;20024;-67
2022/03/22 13:44:13;;;;;;;14.50;11.45;;;;;;;;;;5044545;28;20059;-69
2022/03/22 13:46:49;;;;;;;15.25;11.60;;;;;;;;;;5045739;28;20486;-69
2022/03/22 13:49:14;;;;;;;15.45;11.77;;;;;;;;;;5060729;28;20040;-68
2022/03/22 13:51:40;;;;;;;14.02;11.30;;;;;;;;;;5061383;28;20436;-67
2022/03/22 13:54:10;;;;;;;13.65;11.13;;;;;;;;;;5055020;28;20028;-68
2022/03/22 13:56:35;;;;;;;14.63;12.23;;;;;;;;;;5063203;28;20013;-69
2022/03/22 13:59:09;;;;;;;14.13;12.15;;;;;;;;;;5060845;28;20088;-69
2022/03/22 14:01:35;;;;;;;15.02;11.88;;;;;;;;;;5059208;28;20024;-68
2022/03/22 14:04:00;;;;;;;13.93;10.93;;;;;;;;;;5060885;28;20040;-68
2022/03/22 14:06:26;;;;;;;14.50;10.87;;;;;;;;;;5061930;28;20363;-67
2022/03/22 14:08:52;;;;;;;13.38;10.93;;;;;;;;;;5054416;28;20266;-68
2022/03/22 14:11:17;;;;;;;14.93;11.20;;;;;;;;;;5044896;28;20623;-68
2022/03/22 14:13:42;;;;;;;12.25;10.95;;;;;;;;;;5061012;28;20056;-67
2022/03/22 14:16:07;;;;;;;16.05;12.45;;;;;;;;;;5057662;28;20086;-67
2022/03/22 14:18:33;;;;;;;16.57;11.63;;;;;;;;;;5060759;28;20032;-67
2022/03/22 14:20:58;;;;;;;17.17;12.48;;;;;;;;;;5058736;28;20257;-68
2022/03/22 14:23:25;;;;;;;16.30;12.23;;;;;;;;;;5056053;28;20440;-68
2022/03/22 14:25:51;;;;;;;17.15;13.27;;;;;;;;;;5060004;28;20086;-68
2022/03/22 14:28:17;;;;;;;17.40;12.98;;;;;;;;;;5041961;28;20029;-68
2022/03/22 14:30:43;;;;;;;16.42;13.48;;;;;;;;;;5058339;28;20051;-68
2022/03/22 14:33:09;;;;;;;17.08;13.07;;;;;;;;;;5060104;28;20623;-69
2022/03/22 14:35:47;;;;;;;15.80;13.85;;;;;;;;;;5061868;28;20525;-68
2022/03/22 14:38:13;;;;;;;16.67;13.60;;;;;;;;;;5055489;28;20455;-69
2022/03/22 14:40:39;;;;;;;15.25;13.10;;;;;;;;;;5062184;28;20020;-69
2022/03/22 14:43:06;;;;;;;18.42;14.30;;;;;;;;;;5060346;28;20439;-68
2022/03/22 14:45:32;;;;;;;19.52;14.27;;;;;;;;;;5058696;28;20024;-68
2022/03/22 14:47:58;;;;;;;16.45;13.90;;;;;;;;;;5059236;28;20104;-68
2022/03/22 14:50:24;;;;;;;15.88;13.23;;;;;;;;;;5043960;28;20020;-69
2022/03/22 14:55:34;;;;;;;15.15;12.82;;;;;;;;;;5065765;28;20123;-67